Tasman — ZDKI2 — position and weather

sailwx.info

Track history (hours):
 
Tides and Currents Weather Stations Pressure Air Temp Water Temp Dewpoint Dewpoint Depression Visibility Wind Speed Wind Dir Waves Ship Positions

Tasman

Last reported at 2014-Jul-30 12:10 UTC. Time now 2014-Aug-01 15:59 UTC.
Position N 39°16' W 009°49'.

Length 90 m; draft 4 m.

Type: Ship. MMSI: 23617000.

Date/timePositionNaut miles runAvg speedWind from/ knotsBaromVisibWave heightAir tempDewpointWater temp
2014-Jul-30 12:10N 39°16' W 009°49'610.5
2014-Jul-30 11:33N 39°09' W 009°49'1210.5
2014-Jul-30 10:27N 38°58' W 009°50'910.0
2014-Jul-30 09:32N 38°49' W 009°50'1010.0
2014-Jul-30 08:34N 38°39' W 009°49'1110.6
2014-Jul-30 07:33N 38°28' W 009°46'1110.6
2014-Jul-30 06:33N 38°18' W 009°44'1010.2
2014-Jul-30 05:33N 38°08' W 009°41'1010.0
2014-Jul-30 04:33N 37°58' W 009°38'1010.1
2014-Jul-30 03:33N 37°48' W 009°36'1010.3
2014-Jul-30 02:33N 37°39' W 009°32'1010.1
2014-Jul-30 01:33N 37°29' W 009°29'1010.1
2014-Jul-30 00:33N 37°19' W 009°25'1110.2
2014-Jul-29 23:29N 37°08' W 009°22'9 9.8
2014-Jul-29 22:33N 36°59' W 009°20'10 9.8
2014-Jul-29 21:34N 36°51' W 009°14'10 9.7
2014-Jul-29 20:32N 36°45' W 009°04'1010.0
2014-Jul-29 19:34N 36°42' W 008°53'1010.2
2014-Jul-29 18:33N 36°39' W 008°40'1010.0
2014-Jul-29 17:33N 36°37' W 008°28'2210.3
2014-Jul-29 15:23N 36°31' W 008°01'1910.6
2014-Jul-29 13:32N 36°25' W 007°38'1110.6
2014-Jul-29 12:30N 36°22' W 007°25'2310.7
2014-Jul-29 10:24N 36°15' W 006°58'374 9.9
2014-Jul-27 20:33N 37°02' E 000°44'13511.2
2014-Jul-27 08:33N 37°28' E 003°30'2611.3
2014-Jul-27 06:17N 37°32' E 004°02'811.5
2014-Jul-27 05:32N 37°33' E 004°13'1411.5
2014-Jul-27 04:21N 37°35' E 004°30'2111.4
2014-Jul-27 02:33N 37°39' E 004°55'1111.0
2014-Jul-27 01:33N 37°40' E 005°09'10511.3
2014-Jul-26 16:16N 37°54' E 007°21'12610.4
2014-Jul-26 04:09N 38°09' E 010°00'3810.5
2014-Jul-26 00:31N 38°10' E 010°48'10311.0
2014-Jul-25 15:09N 38°16' E 012°59'711.6
2014-Jul-25 14:33N 38°17' E 013°08'1212.2
2014-Jul-25 13:33N 38°17' E 013°24'1211.6
2014-Jul-25 12:33N 38°17' E 013°38'1111.2
2014-Jul-25 11:33N 38°17' E 013°53'  
2014-Jul-22 22:06N 39°19' E 025°31'811.6
2014-Jul-22 21:26N 39°26' E 025°35'3811.9
2014-Jul-22 18:12N 39°60' E 025°59'  
Track history (hours):
 
Tides and Currents Weather Stations Pressure Air Temp Water Temp Dewpoint Dewpoint Depression Visibility Wind Speed Wind Dir Waves Ship Positions

Tasman

Last reported at 2014-Jul-30 12:10 UTC. Time now 2014-Aug-01 15:59 UTC.
Position N 39°16' W 009°49'.

Length 90 m; draft 4 m.

Type: Ship. MMSI: 23617000.

Date/timePositionNaut miles runAvg speedWind from/ knotsBaromVisibWave heightAir tempDewpointWater temp
2014-Jul-30 12:10N 39°16' W 009°49'610.5
2014-Jul-30 11:33N 39°09' W 009°49'1210.5
2014-Jul-30 10:27N 38°58' W 009°50'910.0
2014-Jul-30 09:32N 38°49' W 009°50'1010.0
2014-Jul-30 08:34N 38°39' W 009°49'1110.6
2014-Jul-30 07:33N 38°28' W 009°46'1110.6
2014-Jul-30 06:33N 38°18' W 009°44'1010.2
2014-Jul-30 05:33N 38°08' W 009°41'1010.0
2014-Jul-30 04:33N 37°58' W 009°38'1010.1
2014-Jul-30 03:33N 37°48' W 009°36'1010.3
2014-Jul-30 02:33N 37°39' W 009°32'1010.1
2014-Jul-30 01:33N 37°29' W 009°29'1010.1
2014-Jul-30 00:33N 37°19' W 009°25'1110.2
2014-Jul-29 23:29N 37°08' W 009°22'9 9.8
2014-Jul-29 22:33N 36°59' W 009°20'10 9.8
2014-Jul-29 21:34N 36°51' W 009°14'10 9.7
2014-Jul-29 20:32N 36°45' W 009°04'1010.0
2014-Jul-29 19:34N 36°42' W 008°53'1010.2
2014-Jul-29 18:33N 36°39' W 008°40'1010.0
2014-Jul-29 17:33N 36°37' W 008°28'2210.3
2014-Jul-29 15:23N 36°31' W 008°01'1910.6
2014-Jul-29 13:32N 36°25' W 007°38'1110.6
2014-Jul-29 12:30N 36°22' W 007°25'2310.7
2014-Jul-29 10:24N 36°15' W 006°58'374 9.9
2014-Jul-27 20:33N 37°02' E 000°44'13511.2
2014-Jul-27 08:33N 37°28' E 003°30'2611.3
2014-Jul-27 06:17N 37°32' E 004°02'811.5
2014-Jul-27 05:32N 37°33' E 004°13'1411.5
2014-Jul-27 04:21N 37°35' E 004°30'2111.4
2014-Jul-27 02:33N 37°39' E 004°55'1111.0
2014-Jul-27 01:33N 37°40' E 005°09'10511.3
2014-Jul-26 16:16N 37°54' E 007°21'12610.4
2014-Jul-26 04:09N 38°09' E 010°00'3810.5
2014-Jul-26 00:31N 38°10' E 010°48'10311.0
2014-Jul-25 15:09N 38°16' E 012°59'711.6
2014-Jul-25 14:33N 38°17' E 013°08'1212.2
2014-Jul-25 13:33N 38°17' E 013°24'1211.6
2014-Jul-25 12:33N 38°17' E 013°38'1111.2
2014-Jul-25 11:33N 38°17' E 013°53'  
2014-Jul-22 22:06N 39°19' E 025°31'811.6
2014-Jul-22 21:26N 39°26' E 025°35'3811.9
2014-Jul-22 18:12N 39°60' E 025°59'  

Dump ship's entire track history